Time;durP1;ratioP1;P1;durP2;ratioP2;P2;SDS_P1;SDS_P2;PMS_P1;PMS_P2;Temp;Humidity;BMP_temperature;BMP_pressure;BME280_temperature;BME280_humidity;BME280_pressure;Samples;Min_cycle;Max_cycle;Signal;HPM_P1;HPM_P2
2022/05/07 00:02:06;;;;;;;;;;;15.70;43.80;;;;;;5065453;28;20047;-89
2022/05/07 00:04:32;;;;;;;;;;;15.70;43.60;;;;;;5057768;28;20283;-89
2022/05/07 00:06:58;;;;;;;;;;;15.60;43.60;;;;;;5065895;28;19920;-89
2022/05/07 00:09:24;;;;;;;;;;;15.50;43.70;;;;;;5075756;28;20361;-88
2022/05/07 00:11:49;;;;;;;;;;;15.50;43.60;;;;;;5063802;28;20251;-89
2022/05/07 00:14:15;;;;;;;;;;;15.50;43.60;;;;;;5076478;28;19927;-89
2022/05/07 00:19:25;;;;;;;;;;;15.40;43.60;;;;;;5076653;28;19932;-89
2022/05/07 00:21:50;;;;;;;;;;;15.30;43.70;;;;;;5080902;28;19913;-89
2022/05/07 00:24:16;;;;;;;;;;;15.30;43.80;;;;;;5055343;28;19928;-89
2022/05/07 00:26:41;;;;;;;;;;;15.30;43.90;;;;;;5082083;28;19955;-88
2022/05/07 00:29:07;;;;;;;;;;;15.30;44.00;;;;;;5076318;28;19927;-89
2022/05/07 00:31:32;;;;;;;;;;;15.20;44.00;;;;;;5066704;28;19924;-88
2022/05/07 00:33:58;;;;;;;;;;;15.20;44.00;;;;;;5067190;28;19978;-88
2022/05/07 00:36:23;;;;;;;;;;;15.20;44.00;;;;;;5074890;28;19916;-89
2022/05/07 00:38:49;;;;;;;;;;;15.20;44.10;;;;;;5069679;28;19916;-89
2022/05/07 00:41:14;;;;;;;;;;;15.10;44.10;;;;;;5061336;28;20461;-89
2022/05/07 00:43:41;;;;;;;;;;;15.10;44.10;;;;;;5072750;28;19916;-89
2022/05/07 00:46:06;;;;;;;;;;;15.10;44.20;;;;;;5085378;28;20390;-89
2022/05/07 00:48:32;;;;;;;;;;;15.00;44.20;;;;;;5056264;28;19916;-88
2022/05/07 00:53:45;;;;;;;;;;;15.00;44.40;;;;;;5076118;28;19926;-89
2022/05/07 00:56:10;;;;;;;;;;;15.00;44.50;;;;;;5071568;28;20371;-88
2022/05/07 00:58:36;;;;;;;;;;;15.00;44.50;;;;;;5077998;28;19916;-88
2022/05/07 01:01:02;;;;;;;;;;;14.90;44.60;;;;;;5096019;28;19943;-89
2022/05/07 01:03:27;;;;;;;;;;;15.00;44.60;;;;;;5078369;28;19992;-89
2022/05/07 01:05:53;;;;;;;;;;;15.00;44.70;;;;;;5085625;28;19919;-89
2022/05/07 01:08:22;;;;;;;;;;;14.90;44.80;;;;;;5076457;28;19950;-88
2022/05/07 01:10:48;;;;;;;;;;;14.90;44.80;;;;;;5086325;28;19920;-88
2022/05/07 01:13:13;;;;;;;;;;;14.80;44.80;;;;;;5074772;28;20390;-88
2022/05/07 01:15:48;;;;;;;;;;;14.80;44.90;;;;;;5061006;28;20015;-89
2022/05/07 01:18:15;;;;;;;;;;;14.80;45.00;;;;;;5074510;28;20356;-88
2022/05/07 01:20:41;;;;;;;;;;;14.80;45.30;;;;;;5070334;28;19913;-89
2022/05/07 01:23:08;;;;;;;;;;;14.80;45.50;;;;;;5064024;28;19923;-89
2022/05/07 01:25:33;;;;;;;;;;;14.70;45.60;;;;;;5075400;28;19917;-88
2022/05/07 01:27:59;;;;;;;;;;;14.70;45.90;;;;;;5072460;28;19990;-89
2022/05/07 01:30:24;;;;;;;;;;;14.70;46.20;;;;;;5075949;28;19920;-89
2022/05/07 01:32:50;;;;;;;;;;;14.70;46.30;;;;;;5064879;28;19917;-89
2022/05/07 01:35:15;;;;;;;;;;;14.70;46.20;;;;;;5055521;28;19916;-89
2022/05/07 01:37:41;;;;;;;;;;;14.60;46.20;;;;;;5069606;28;19921;-88
2022/05/07 01:40:07;;;;;;;;;;;14.60;46.20;;;;;;5054381;28;19917;-88
2022/05/07 01:42:32;;;;;;;;;;;14.60;46.10;;;;;;5055600;28;19921;-88
2022/05/07 01:44:58;;;;;;;;;;;14.60;46.10;;;;;;5053736;28;19922;-89
2022/05/07 01:50:09;;;;;;;;;;;14.50;45.90;;;;;;5076351;28;19961;-89
2022/05/07 01:52:34;;;;;;;;;;;14.50;46.00;;;;;;5079202;28;20261;-89
2022/05/07 01:55:00;;;;;;;;;;;14.50;46.00;;;;;;5056655;28;19920;-87
2022/05/07 01:57:25;;;;;;;;;;;14.40;46.10;;;;;;5072866;28;19947;-88
2022/05/07 01:59:51;;;;;;;;;;;14.40;46.10;;;;;;5073012;28;20391;-89
2022/05/07 02:02:16;;;;;;;;;;;14.40;46.10;;;;;;5072808;28;20008;-90
2022/05/07 02:04:43;;;;;;;;;;;14.40;46.30;;;;;;5055523;28;19913;-88
2022/05/07 02:07:09;;;;;;;;;;;14.40;46.40;;;;;;5073563;28;19913;-89
2022/05/07 02:09:35;;;;;;;;;;;14.30;46.40;;;;;;5061871;28;20390;-89
2022/05/07 02:12:01;;;;;;;;;;;14.30;46.40;;;;;;5056775;28;19916;-89
2022/05/07 02:14:26;;;;;;;;;;;14.30;46.40;;;;;;5073604;28;20386;-89
2022/05/07 02:16:52;;;;;;;;;;;14.30;46.40;;;;;;5074097;28;19970;-89
2022/05/07 02:19:17;;;;;;;;;;;14.20;46.40;;;;;;5061288;28;19916;-90
2022/05/07 02:21:43;;;;;;;;;;;14.10;46.50;;;;;;5077567;28;19924;-88
2022/05/07 02:24:08;;;;;;;;;;;14.10;46.40;;;;;;5072579;28;20332;-89
2022/05/07 02:26:34;;;;;;;;;;;14.10;46.50;;;;;;5077440;28;19913;-89
2022/05/07 02:28:59;;;;;;;;;;;14.00;46.50;;;;;;5072970;28;19916;-88
2022/05/07 02:31:24;;;;;;;;;;;14.00;46.60;;;;;;5078350;28;19934;-87
2022/05/07 02:33:51;;;;;;;;;;;14.00;46.60;;;;;;5054747;28;19913;-88
2022/05/07 02:36:16;;;;;;;;;;;14.00;46.80;;;;;;5077228;28;19928;-88
2022/05/07 02:38:42;;;;;;;;;;;14.00;46.90;;;;;;5053380;28;19918;-88
2022/05/07 02:43:52;;;;;;;;;;;13.90;46.80;;;;;;5072755;28;19946;-88
2022/05/07 02:46:17;;;;;;;;;;;13.80;46.90;;;;;;5088267;28;19920;-89
2022/05/07 02:48:45;;;;;;;;;;;13.90;47.00;;;;;;5073066;28;19916;-88
2022/05/07 02:51:14;;;;;;;;;;;13.90;46.90;;;;;;5077245;28;19924;-88
2022/05/07 02:53:39;;;;;;;;;;;13.90;47.00;;;;;;5062931;28;20021;-89
2022/05/07 02:56:05;;;;;;;;;;;13.90;46.90;;;;;;5060532;28;19984;-89
2022/05/07 02:58:30;;;;;;;;;;;13.80;46.90;;;;;;5046467;28;20280;-89
2022/05/07 03:00:57;;;;;;;;;;;13.80;47.00;;;;;;5050594;28;19943;-89
2022/05/07 03:03:23;;;;;;;;;;;13.80;47.20;;;;;;5070574;28;20265;-89
2022/05/07 03:05:49;;;;;;;;;;;13.80;47.20;;;;;;5073164;28;20257;-89
2022/05/07 03:08:14;;;;;;;;;;;13.80;47.10;;;;;;5073492;28;19912;-89
2022/05/07 03:10:40;;;;;;;;;;;13.80;47.20;;;;;;5053886;28;19939;-90
2022/05/07 03:13:05;;;;;;;;;;;13.80;47.30;;;;;;5071515;28;19916;-88
2022/05/07 03:15:32;;;;;;;;;;;13.80;47.20;;;;;;5047969;28;20007;-88
2022/05/07 03:17:57;;;;;;;;;;;13.80;47.20;;;;;;5069645;28;20498;-89
2022/05/07 03:20:23;;;;;;;;;;;13.80;47.20;;;;;;5054523;28;19960;-88
2022/05/07 03:22:48;;;;;;;;;;;13.80;47.20;;;;;;5074376;28;19920;-88
2022/05/07 03:25:14;;;;;;;;;;;13.70;47.20;;;;;;5054383;28;19920;-89
2022/05/07 03:27:39;;;;;;;;;;;13.80;47.30;;;;;;5069501;28;19912;-88
2022/05/07 03:30:07;;;;;;;;;;;13.80;47.20;;;;;;5054693;28;19932;-88
2022/05/07 03:32:32;;;;;;;;;;;13.80;47.40;;;;;;5076531;28;19917;-89
2022/05/07 03:34:58;;;;;;;;;;;13.80;47.60;;;;;;5080076;28;19908;-89
2022/05/07 03:37:24;;;;;;;;;;;13.90;48.10;;;;;;5064457;28;19916;-88
2022/05/07 03:39:50;;;;;;;;;;;13.90;48.60;;;;;;5075527;28;19987;-88
2022/05/07 03:42:16;;;;;;;;;;;14.00;48.80;;;;;;5076343;28;20401;-88
2022/05/07 03:44:42;;;;;;;;;;;14.00;48.90;;;;;;5076072;28;19923;-88
2022/05/07 03:47:07;;;;;;;;;;;14.00;48.70;;;;;;5060823;28;19931;-89
2022/05/07 03:49:33;;;;;;;;;;;14.00;48.60;;;;;;5076181;28;19943;-88
2022/05/07 03:54:43;;;;;;;;;;;14.00;48.50;;;;;;5073019;28;19990;-89
2022/05/07 03:57:09;;;;;;;;;;;14.00;48.60;;;;;;5056787;28;19917;-88
2022/05/07 03:59:35;;;;;;;;;;;14.00;48.70;;;;;;5064637;28;19923;-87
2022/05/07 04:02:00;;;;;;;;;;;14.00;48.70;;;;;;5078347;28;19912;-87
2022/05/07 04:04:26;;;;;;;;;;;14.00;48.60;;;;;;5076366;28;19916;-87
2022/05/07 04:06:51;;;;;;;;;;;14.00;48.60;;;;;;5073602;28;19955;-88
2022/05/07 04:09:17;;;;;;;;;;;14.10;48.50;;;;;;5072295;28;19917;-88
2022/05/07 04:11:42;;;;;;;;;;;14.00;48.50;;;;;;5061182;28;19916;-88
2022/05/07 04:14:08;;;;;;;;;;;14.10;48.40;;;;;;5061567;28;19916;-88
2022/05/07 04:16:33;;;;;;;;;;;14.10;48.50;;;;;;5078842;28;19920;-87
2022/05/07 04:18:59;;;;;;;;;;;14.10;48.50;;;;;;5063228;28;19917;-87
2022/05/07 04:21:24;;;;;;;;;;;14.10;48.40;;;;;;5052443;28;19920;-87
2022/05/07 04:23:49;;;;;;;;;;;14.20;48.50;;;;;;5050619;28;19959;-88
2022/05/07 04:26:15;;;;;;;;;;;14.20;48.50;;;;;;5054404;28;19920;-90
2022/05/07 04:28:40;;;;;;;;;;;14.30;48.80;;;;;;5056348;28;19999;-89
2022/05/07 04:31:08;;;;;;;;;;;14.50;49.40;;;;;;5062168;28;19951;-88
2022/05/07 04:33:34;;;;;;;;;;;14.70;49.70;;;;;;5061156;28;19912;-88
2022/05/07 04:35:59;;;;;;;;;;;14.90;49.90;;;;;;5051229;28;19924;-89
2022/05/07 04:38:25;;;;;;;;;;;15.20;50.10;;;;;;5061876;28;19920;-88
2022/05/07 04:40:50;;;;;;;;;;;15.50;50.20;;;;;;5074965;28;19917;-88
2022/05/07 04:43:19;;;;;;;;;;;15.80;50.30;;;;;;5074056;28;19912;-89
2022/05/07 04:45:45;;;;;;;;;;;16.00;50.30;;;;;;5074284;28;20380;-88
2022/05/07 04:48:10;;;;;;;;;;;16.30;50.20;;;;;;5074052;28;19923;-88
2022/05/07 04:50:36;;;;;;;;;;;16.60;50.20;;;;;;5056530;28;19916;-88
2022/05/07 04:53:02;;;;;;;;;;;16.90;49.90;;;;;;5075039;28;19981;-88
2022/05/07 04:55:27;;;;;;;;;;;17.20;49.90;;;;;;5056339;28;19931;-89
2022/05/07 04:57:53;;;;;;;;;;;17.40;49.80;;;;;;5074888;28;19913;-88
2022/05/07 05:00:18;;;;;;;;;;;17.70;49.60;;;;;;5056477;28;19943;-88
2022/05/07 05:02:44;;;;;;;;;;;18.00;49.20;;;;;;5074325;28;19974;-89
2022/05/07 05:05:09;;;;;;;;;;;18.20;48.90;;;;;;5074290;28;19913;-89
2022/05/07 05:07:35;;;;;;;;;;;18.40;48.90;;;;;;5055975;28;19916;-89
2022/05/07 05:10:00;;;;;;;;;;;18.80;49.00;;;;;;5059417;28;19918;-89
2022/05/07 05:12:26;;;;;;;;;;;19.10;48.80;;;;;;5073495;28;19912;-89
2022/05/07 05:15:08;;;;;;;;;;;19.50;48.50;;;;;;5074535;28;19924;-89
2022/05/07 05:17:34;;;;;;;;;;;19.90;48.20;;;;;;5055742;28;19924;-89
2022/05/07 05:20:01;;;;;;;;;;;20.30;47.90;;;;;;5076409;28;19919;-89
2022/05/07 05:22:26;;;;;;;;;;;20.70;47.70;;;;;;5074375;28;19917;-90
2022/05/07 05:24:52;;;;;;;;;;;21.20;47.50;;;;;;5059629;28;19970;-90
2022/05/07 05:27:20;;;;;;;;;;;21.60;47.10;;;;;;5075060;28;19916;-90
2022/05/07 05:29:46;;;;;;;;;;;22.10;46.70;;;;;;5074597;28;19921;-89
2022/05/07 05:32:17;;;;;;;;;;;22.50;46.00;;;;;;5074688;28;20276;-90
2022/05/07 05:34:49;;;;;;;;;;;23.00;45.00;;;;;;5072575;28;19931;-90
2022/05/07 05:37:15;;;;;;;;;;;23.40;44.10;;;;;;5074018;28;19983;-89
2022/05/07 05:39:41;;;;;;;;;;;23.80;43.50;;;;;;5057856;28;20395;-90
2022/05/07 05:42:07;;;;;;;;;;;24.00;42.90;;;;;;5076531;28;19913;-90
2022/05/07 05:44:35;;;;;;;;;;;24.30;42.10;;;;;;5073664;28;19916;-89
2022/05/07 05:47:00;;;;;;;;;;;24.50;41.30;;;;;;5055993;28;19980;-90
2022/05/07 05:49:25;;;;;;;;;;;24.70;41.00;;;;;;5073219;28;19944;-88
2022/05/07 05:51:51;;;;;;;;;;;25.00;40.30;;;;;;5074006;28;19916;-89
2022/05/07 05:54:16;;;;;;;;;;;25.10;40.00;;;;;;5057149;28;19916;-90
2022/05/07 05:56:42;;;;;;;;;;;25.30;40.00;;;;;;5076945;28;20003;-89
2022/05/07 05:59:07;;;;;;;;;;;25.30;39.00;;;;;;5055542;28;20287;-89
2022/05/07 06:01:33;;;;;;;;;;;25.30;38.60;;;;;;5074788;28;19913;-88
2022/05/07 06:03:58;;;;;;;;;;;25.20;38.50;;;;;;5056279;28;19912;-90
2022/05/07 06:06:23;;;;;;;;;;;25.20;38.50;;;;;;5075784;28;19924;-89
2022/05/07 06:08:49;;;;;;;;;;;25.30;38.50;;;;;;5056153;28;19912;-89
2022/05/07 06:11:14;;;;;;;;;;;25.40;38.40;;;;;;5074516;28;19969;-89
2022/05/07 06:13:42;;;;;;;;;;;25.50;38.20;;;;;;5075095;28;19912;-88
2022/05/07 06:16:08;;;;;;;;;;;25.80;37.90;;;;;;5057933;28;19932;-89
2022/05/07 06:18:33;;;;;;;;;;;26.00;37.10;;;;;;5057698;28;19927;-89
2022/05/07 06:21:01;;;;;;;;;;;26.20;36.70;;;;;;5074908;28;19925;-89
2022/05/07 06:23:27;;;;;;;;;;;26.40;36.60;;;;;;5074640;28;19912;-90
2022/05/07 06:28:36;;;;;;;;;;;27.00;36.20;;;;;;5095286;28;20017;-89
2022/05/07 06:31:02;;;;;;;;;;;27.20;35.60;;;;;;5077072;28;20379;-90
2022/05/07 06:33:28;;;;;;;;;;;27.50;35.20;;;;;;5076819;28;20366;-89
2022/05/07 06:35:54;;;;;;;;;;;27.70;34.70;;;;;;5063384;28;19925;-90
2022/05/07 06:38:19;;;;;;;;;;;28.00;34.30;;;;;;5075232;28;20364;-89
2022/05/07 06:40:45;;;;;;;;;;;28.40;33.90;;;;;;5076361;28;19970;-90
2022/05/07 06:43:10;;;;;;;;;;;28.70;33.60;;;;;;5058026;28;20552;-89
2022/05/07 06:45:36;;;;;;;;;;;29.00;33.10;;;;;;5059517;28;19920;-89
2022/05/07 06:48:03;;;;;;;;;;;29.30;32.60;;;;;;5075182;28;19913;-89
2022/05/07 06:50:29;;;;;;;;;;;29.40;32.10;;;;;;5055490;28;19963;-89
2022/05/07 06:52:54;;;;;;;;;;;29.50;31.80;;;;;;5055937;28;19932;-90
2022/05/07 06:55:19;;;;;;;;;;;29.60;31.90;;;;;;5056241;28;19921;-90
2022/05/07 06:57:45;;;;;;;;;;;29.80;31.70;;;;;;5075769;28;19959;-90
2022/05/07 07:00:12;;;;;;;;;;;30.10;31.30;;;;;;5083114;28;20382;-90
2022/05/07 07:02:37;;;;;;;;;;;30.30;30.90;;;;;;5077712;28;20346;-89
2022/05/07 07:05:03;;;;;;;;;;;30.60;30.80;;;;;;5077209;28;19955;-90
2022/05/07 07:07:29;;;;;;;;;;;30.80;30.40;;;;;;5075930;28;19916;-89
2022/05/07 07:09:55;;;;;;;;;;;31.10;30.00;;;;;;5080566;28;19927;-90
2022/05/07 07:12:22;;;;;;;;;;;31.30;29.40;;;;;;5079780;28;19912;-89
2022/05/07 07:14:47;;;;;;;;;;;31.50;29.00;;;;;;5102956;28;19920;-90
2022/05/07 07:17:13;;;;;;;;;;;31.70;28.90;;;;;;5085899;28;19970;-88
2022/05/07 07:19:41;;;;;;;;;;;31.80;28.70;;;;;;5064490;28;20356;-89
2022/05/07 07:22:07;;;;;;;;;;;32.00;28.60;;;;;;5069160;28;19913;-88
2022/05/07 07:24:32;;;;;;;;;;;32.10;28.40;;;;;;5074995;28;19979;-89
2022/05/07 07:26:58;;;;;;;;;;;32.30;28.30;;;;;;5061085;28;19923;-89
2022/05/07 07:29:23;;;;;;;;;;;32.50;28.10;;;;;;5074694;28;19972;-89
2022/05/07 07:31:49;;;;;;;;;;;32.70;27.90;;;;;;5072720;28;19954;-90
2022/05/07 07:34:14;;;;;;;;;;;33.00;27.70;;;;;;5067213;28;19935;-89
2022/05/07 07:36:40;;;;;;;;;;;33.30;27.50;;;;;;5074642;28;20007;-89
2022/05/07 07:39:07;;;;;;;;;;;33.50;27.00;;;;;;5065155;28;19974;-88
2022/05/07 07:41:34;;;;;;;;;;;33.70;26.70;;;;;;5057065;28;19912;-88
2022/05/07 07:43:59;;;;;;;;;;;33.80;26.60;;;;;;5058085;28;19916;-89
2022/05/07 07:49:09;;;;;;;;;;;33.90;26.40;;;;;;5072571;28;19919;-88
2022/05/07 07:51:37;;;;;;;;;;;34.00;26.10;;;;;;5077354;28;20356;-89
2022/05/07 07:54:04;;;;;;;;;;;34.10;25.80;;;;;;5066892;28;19963;-89
2022/05/07 07:56:29;;;;;;;;;;;34.20;25.70;;;;;;5052819;28;19964;-89
2022/05/07 07:58:55;;;;;;;;;;;34.20;25.50;;;;;;5075590;28;19921;-89
2022/05/07 08:01:20;;;;;;;;;;;34.30;25.40;;;;;;5054340;28;19924;-89
2022/05/07 08:03:46;;;;;;;;;;;34.40;25.20;;;;;;5059440;28;19913;-89
2022/05/07 08:06:11;;;;;;;;;;;34.50;25.20;;;;;;5082787;28;19932;-89
2022/05/07 08:14:06;;;;;;;;;;;35.00;24.70;;;;;;5073326;28;19919;-89
2022/05/07 08:16:32;;;;;;;;;;;35.30;24.40;;;;;;5071902;28;19915;-88
2022/05/07 08:18:58;;;;;;;;;;;35.70;24.60;;;;;;5097183;28;19916;-89
2022/05/07 08:21:24;;;;;;;;;;;36.30;24.10;;;;;;5063414;28;19916;-90
2022/05/07 08:23:50;;;;;;;;;;;36.80;23.50;;;;;;5056876;28;19913;-90
2022/05/07 08:26:15;;;;;;;;;;;37.50;23.20;;;;;;5063250;28;19931;-91
2022/05/07 08:28:41;;;;;;;;;;;38.20;22.90;;;;;;5057130;28;19955;-91
2022/05/07 08:31:07;;;;;;;;;;;38.70;22.30;;;;;;5052711;28;20276;-91
2022/05/07 08:33:33;;;;;;;;;;;39.20;21.70;;;;;;5056249;28;19921;-89
2022/05/07 08:35:59;;;;;;;;;;;39.60;20.60;;;;;;5054986;28;20008;-90
2022/05/07 08:38:24;;;;;;;;;;;39.80;20.40;;;;;;5072848;28;20237;-90
2022/05/07 08:40:50;;;;;;;;;;;40.00;20.10;;;;;;5076491;28;19917;-89
2022/05/07 08:43:17;;;;;;;;;;;40.20;19.90;;;;;;5055095;28;19920;-90
2022/05/07 08:45:43;;;;;;;;;;;40.40;19.60;;;;;;5074052;28;20299;-89
2022/05/07 08:48:08;;;;;;;;;;;40.70;19.30;;;;;;5073671;28;19920;-89
2022/05/07 08:50:34;;;;;;;;;;;40.80;19.00;;;;;;5056218;28;20292;-90
2022/05/07 08:52:59;;;;;;;;;;;40.90;18.50;;;;;;5057224;28;19920;-91
2022/05/07 08:55:25;;;;;;;;;;;40.90;18.10;;;;;;5056588;28;19928;-92
2022/05/07 08:57:52;;;;;;;;;;;40.90;18.10;;;;;;5074407;28;19923;-90
2022/05/07 09:00:21;;;;;;;;;;;40.90;17.70;;;;;;5059010;28;19927;-90
2022/05/07 09:02:49;;;;;;;;;;;40.80;18.00;;;;;;5055215;28;20284;-89
2022/05/07 09:05:15;;;;;;;;;;;40.80;18.20;;;;;;5053750;28;20367;-90
2022/05/07 09:07:50;;;;;;;;;;;40.80;18.20;;;;;;5072256;28;20379;-90
2022/05/07 09:10:16;;;;;;;;;;;40.90;18.30;;;;;;5055129;28;19920;-89
2022/05/07 09:12:41;;;;;;;;;;;41.10;18.30;;;;;;5070693;28;19996;-92
2022/05/07 09:15:08;;;;;;;;;;;41.20;17.90;;;;;;5061968;28;19928;-89
2022/05/07 09:17:33;;;;;;;;;;;41.20;17.80;;;;;;5071204;28;19917;-89
2022/05/07 09:20:11;;;;;;;;;;;41.10;17.70;;;;;;5071921;28;20269;-90
2022/05/07 09:22:48;;;;;;;;;;;41.00;17.90;;;;;;5054610;28;19916;-89
2022/05/07 09:25:18;;;;;;;;;;;41.00;17.90;;;;;;5072595;28;19928;-89
2022/05/07 09:27:47;;;;;;;;;;;41.00;18.00;;;;;;5053826;28;19958;-88
2022/05/07 09:30:13;;;;;;;;;;;41.30;18.00;;;;;;5072322;28;19928;-89
2022/05/07 09:32:38;;;;;;;;;;;41.50;18.10;;;;;;5054371;28;19916;-89
2022/05/07 09:37:59;;;;;;;;;;;41.90;17.40;;;;;;5072858;28;19927;-92
2022/05/07 09:40:24;;;;;;;;;;;41.90;17.40;;;;;;5073505;28;20354;-89
2022/05/07 09:42:51;;;;;;;;;;;42.00;17.10;;;;;;5071906;28;20016;-89
2022/05/07 09:45:17;;;;;;;;;;;42.00;17.10;;;;;;5054187;28;20018;-89
2022/05/07 09:47:44;;;;;;;;;;;42.00;17.00;;;;;;5072356;28;19923;-89
2022/05/07 09:50:43;;;;;;;;;;;41.90;17.10;;;;;;5072789;28;19923;-91
2022/05/07 09:58:45;;;;;;;;;;;41.40;17.20;;;;;;5086387;28;19938;-89
2022/05/07 10:01:29;;;;;;;;;;;41.30;17.20;;;;;;5073080;28;19920;-91
2022/05/07 10:04:13;;;;;;;;;;;41.30;17.10;;;;;;5073120;28;19924;-90
2022/05/07 10:07:02;;;;;;;;;;;41.10;17.00;;;;;;5048449;28;19917;-91
2022/05/07 10:09:40;;;;;;;;;;;40.80;16.80;;;;;;5054231;28;19921;-91
2022/05/07 10:12:07;;;;;;;;;;;40.60;16.60;;;;;;5072361;28;19923;-90
2022/05/07 10:14:32;;;;;;;;;;;40.30;17.00;;;;;;5053918;28;19920;-89
2022/05/07 10:17:04;;;;;;;;;;;40.30;17.00;;;;;;5069730;28;19925;-91
2022/05/07 10:19:34;;;;;;;;;;;40.30;17.10;;;;;;5069673;28;19920;-90
2022/05/07 10:22:00;;;;;;;;;;;40.20;17.10;;;;;;5053643;28;19916;-91
2022/05/07 10:24:25;;;;;;;;;;;40.20;17.10;;;;;;5053297;28;19924;-90
2022/05/07 10:26:51;;;;;;;;;;;40.00;16.80;;;;;;5071532;28;19932;-90
2022/05/07 10:29:26;;;;;;;;;;;39.80;17.00;;;;;;5053571;28;19913;-90
2022/05/07 10:32:04;;;;;;;;;;;39.80;16.80;;;;;;5071710;28;20387;-90
2022/05/07 10:34:29;;;;;;;;;;;39.80;17.30;;;;;;5055909;28;19948;-89
2022/05/07 10:37:05;;;;;;;;;;;39.90;17.00;;;;;;5088533;28;19928;-91
2022/05/07 10:39:31;;;;;;;;;;;40.20;16.90;;;;;;5082916;28;20341;-89
2022/05/07 10:41:57;;;;;;;;;;;41.00;16.80;;;;;;5074675;28;19916;-91
2022/05/07 10:44:32;;;;;;;;;;;41.80;16.00;;;;;;5056556;28;20015;-92
2022/05/07 10:47:09;;;;;;;;;;;41.90;15.60;;;;;;5075185;28;19944;-91
2022/05/07 10:49:34;;;;;;;;;;;42.40;15.40;;;;;;5056529;28;20421;-90
2022/05/07 10:52:03;;;;;;;;;;;43.00;15.40;;;;;;5074854;28;19947;-91
2022/05/07 10:54:29;;;;;;;;;;;43.70;15.40;;;;;;5075458;28;19923;-90
2022/05/07 10:56:58;;;;;;;;;;;44.20;15.30;;;;;;5076105;28;19995;-91
2022/05/07 10:59:26;;;;;;;;;;;44.30;15.10;;;;;;5057787;28;19920;-91
2022/05/07 11:02:02;;;;;;;;;;;44.70;15.00;;;;;;5056573;28;19913;-92
2022/05/07 11:04:27;;;;;;;;;;;45.00;14.00;;;;;;5075944;28;19943;-90
2022/05/07 11:06:53;;;;;;;;;;;45.30;14.10;;;;;;5057945;28;19913;-91
2022/05/07 11:09:25;;;;;;;;;;;45.40;14.20;;;;;;5058064;28;19925;-91
2022/05/07 11:12:00;;;;;;;;;;;45.70;14.00;;;;;;5057887;28;20426;-92
2022/05/07 11:14:26;;;;;;;;;;;46.00;14.10;;;;;;5058610;28;19968;-92
2022/05/07 11:16:58;;;;;;;;;;;46.30;14.00;;;;;;5059295;28;20382;-93
2022/05/07 11:19:41;;;;;;;;;;;46.60;13.70;;;;;;5078187;28;19921;-93
2022/05/07 11:22:10;;;;;;;;;;;46.80;13.70;;;;;;5077800;28;20383;-92
2022/05/07 11:24:36;;;;;;;;;;;47.00;13.40;;;;;;5060219;28;19913;-93
2022/05/07 11:27:05;;;;;;;;;;;47.10;13.40;;;;;;5077543;28;19938;-92
2022/05/07 11:29:31;;;;;;;;;;;47.20;13.50;;;;;;5059213;28;19912;-92
2022/05/07 11:31:59;;;;;;;;;;;47.40;13.40;;;;;;5058596;28;19916;-91
2022/05/07 11:34:35;;;;;;;;;;;47.50;13.40;;;;;;5074603;28;20603;-92
2022/05/07 11:37:10;;;;;;;;;;;47.70;13.20;;;;;;5053575;28;19971;-91
2022/05/07 11:39:45;;;;;;;;;;;47.60;12.90;;;;;;5054239;28;19956;-92
2022/05/07 11:42:11;;;;;;;;;;;47.70;12.80;;;;;;5071500;28;19917;-91
2022/05/07 11:47:22;;;;;;;;;;;47.80;11.90;;;;;;5076542;28;20409;-92
2022/05/07 11:50:02;;;;;;;;;;;47.60;12.10;;;;;;5057717;28;19913;-92
2022/05/07 11:52:28;;;;;;;;;;;47.40;11.90;;;;;;5057568;28;19913;-91
2022/05/07 11:54:53;;;;;;;;;;;46.90;11.80;;;;;;5057347;28;19932;-91
2022/05/07 11:57:32;;;;;;;;;;;46.50;12.00;;;;;;5074947;28;20368;-90
2022/05/07 12:00:11;;;;;;;;;;;46.00;12.20;;;;;;5056608;28;19916;-91
2022/05/07 12:02:38;;;;;;;;;;;45.20;12.60;;;;;;5056757;28;20400;-91
2022/05/07 12:05:04;;;;;;;;;;;45.10;12.90;;;;;;5056747;28;19920;-91
2022/05/07 12:07:38;;;;;;;;;;;45.10;13.00;;;;;;5060331;28;19919;-89
2022/05/07 12:10:03;;;;;;;;;;;45.20;13.10;;;;;;5056596;28;20061;-90
2022/05/07 12:12:29;;;;;;;;;;;45.20;12.40;;;;;;5056580;28;19948;-90
2022/05/07 12:14:54;;;;;;;;;;;44.80;12.50;;;;;;5080194;28;19931;-90
2022/05/07 12:20:04;;;;;;;;;;;44.10;12.40;;;;;;5074937;28;19927;-90
2022/05/07 12:30:45;;;;;;;;;;;42.90;13.10;;;;;;5078049;28;19942;-90
2022/05/07 12:33:11;;;;;;;;;;;42.50;13.20;;;;;;5083016;28;19912;-90
2022/05/07 12:35:36;;;;;;;;;;;42.50;13.40;;;;;;5076286;28;20011;-90
2022/05/07 12:38:02;;;;;;;;;;;43.00;13.60;;;;;;5094461;28;19923;-90
2022/05/07 12:40:27;;;;;;;;;;;43.30;13.60;;;;;;5094727;28;19949;-89
2022/05/07 12:42:53;;;;;;;;;;;43.20;13.70;;;;;;5091118;28;20283;-89
2022/05/07 12:45:21;;;;;;;;;;;42.70;13.80;;;;;;5071319;28;19921;-89
2022/05/07 12:47:46;;;;;;;;;;;42.00;14.10;;;;;;5075508;28;19914;-89
2022/05/07 12:50:12;;;;;;;;;;;41.20;14.50;;;;;;5076682;28;19964;-88
2022/05/07 12:52:37;;;;;;;;;;;40.40;14.90;;;;;;5061416;28;19919;-89
2022/05/07 12:55:03;;;;;;;;;;;39.50;15.50;;;;;;5062968;28;20379;-90
2022/05/07 12:57:30;;;;;;;;;;;38.80;16.30;;;;;;5059526;28;19920;-89
2022/05/07 12:59:57;;;;;;;;;;;38.00;16.80;;;;;;5056106;28;20006;-88
2022/05/07 13:02:23;;;;;;;;;;;37.30;17.50;;;;;;5056007;28;19913;-88
2022/05/07 13:04:49;;;;;;;;;;;36.60;18.50;;;;;;5056508;28;19935;-88
2022/05/07 13:07:15;;;;;;;;;;;35.90;21.10;;;;;;5056099;28;20320;-88
2022/05/07 13:09:41;;;;;;;;;;;34.60;29.60;;;;;;5055026;28;20361;-88
2022/05/07 13:12:10;;;;;;;;;;;33.30;35.20;;;;;;5055158;28;19959;-88
2022/05/07 13:14:36;;;;;;;;;;;32.30;39.90;;;;;;5058505;28;19916;-88
2022/05/07 13:17:02;;;;;;;;;;;31.50;43.50;;;;;;5059074;28;19969;-87
2022/05/07 13:19:27;;;;;;;;;;;30.80;44.80;;;;;;5057888;28;20015;-89
2022/05/07 13:21:54;;;;;;;;;;;30.10;45.50;;;;;;5053630;28;19920;-89
2022/05/07 13:24:19;;;;;;;;;;;29.50;47.40;;;;;;5053806;28;19940;-89
2022/05/07 13:26:45;;;;;;;;;;;29.30;50.10;;;;;;5071402;28;20403;-89
2022/05/07 13:29:11;;;;;;;;;;;29.10;50.70;;;;;;5052604;28;20261;-88
2022/05/07 13:31:37;;;;;;;;;;;29.20;51.20;;;;;;5071338;28;19912;-89
2022/05/07 13:34:04;;;;;;;;;;;29.30;51.80;;;;;;5065520;28;19923;-89
2022/05/07 13:36:30;;;;;;;;;;;29.40;51.50;;;;;;5091786;28;20368;-89
2022/05/07 13:38:59;;;;;;;;;;;29.60;52.50;;;;;;5074937;28;19927;-89
2022/05/07 13:41:26;;;;;;;;;;;29.60;52.10;;;;;;5071843;28;20021;-89
2022/05/07 13:43:52;;;;;;;;;;;29.70;53.10;;;;;;5071414;28;19940;-89
2022/05/07 13:46:17;;;;;;;;;;;29.80;53.00;;;;;;5054131;28;20316;-87
2022/05/07 13:48:44;;;;;;;;;;;30.00;52.40;;;;;;5054123;28;19921;-89
2022/05/07 13:51:10;;;;;;;;;;;30.20;53.90;;;;;;5054126;28;19919;-89
2022/05/07 13:53:35;;;;;;;;;;;30.30;52.40;;;;;;5054505;28;19917;-88
2022/05/07 13:56:01;;;;;;;;;;;30.60;54.00;;;;;;5072082;28;20023;-89
2022/05/07 13:58:26;;;;;;;;;;;30.80;53.70;;;;;;5070719;28;19925;-89
2022/05/07 14:00:51;;;;;;;;;;;31.00;52.50;;;;;;5071596;28;20389;-89
2022/05/07 14:03:17;;;;;;;;;;;31.20;52.70;;;;;;5071417;28;20296;-90
2022/05/07 14:05:43;;;;;;;;;;;31.50;51.10;;;;;;5072086;28;19916;-90
2022/05/07 14:08:08;;;;;;;;;;;31.80;50.20;;;;;;5071259;28;20018;-89
2022/05/07 14:10:34;;;;;;;;;;;32.30;50.80;;;;;;5048294;28;20017;-89
2022/05/07 14:13:00;;;;;;;;;;;32.70;44.50;;;;;;5065944;28;19916;-90
2022/05/07 14:15:25;;;;;;;;;;;32.80;42.60;;;;;;5070949;28;20387;-89
2022/05/07 14:17:51;;;;;;;;;;;32.80;43.30;;;;;;5061948;28;20012;-89
2022/05/07 14:20:16;;;;;;;;;;;32.80;43.10;;;;;;5070977;28;19920;-87
2022/05/07 14:22:42;;;;;;;;;;;32.80;43.50;;;;;;5071847;28;19923;-89
2022/05/07 14:25:08;;;;;;;;;;;32.90;43.10;;;;;;5053791;28;20376;-89
2022/05/07 14:27:35;;;;;;;;;;;32.90;42.70;;;;;;5053439;28;19908;-88
2022/05/07 14:30:01;;;;;;;;;;;32.90;42.20;;;;;;5072087;28;19917;-89
2022/05/07 14:32:26;;;;;;;;;;;32.80;43.00;;;;;;5072523;28;20573;-88
2022/05/07 14:34:51;;;;;;;;;;;32.80;42.10;;;;;;5070780;28;19964;-89
2022/05/07 14:37:17;;;;;;;;;;;32.80;42.90;;;;;;5071641;28;19920;-89
2022/05/07 14:39:42;;;;;;;;;;;32.80;42.40;;;;;;5071701;28;19920;-90
2022/05/07 14:42:09;;;;;;;;;;;32.70;41.40;;;;;;5071343;28;20352;-90
2022/05/07 14:44:35;;;;;;;;;;;32.70;41.00;;;;;;5071795;28;19930;-89
2022/05/07 14:47:01;;;;;;;;;;;32.60;40.80;;;;;;5053553;28;19924;-89
2022/05/07 14:49:26;;;;;;;;;;;32.70;38.00;;;;;;5052667;28;19921;-89
2022/05/07 14:51:52;;;;;;;;;;;32.40;37.00;;;;;;5053702;28;19916;-89
2022/05/07 14:54:18;;;;;;;;;;;32.30;33.60;;;;;;5053390;28;19931;-89
2022/05/07 14:56:44;;;;;;;;;;;32.00;32.80;;;;;;5052636;28;19925;-89
2022/05/07 14:59:09;;;;;;;;;;;31.70;31.40;;;;;;5070854;28;19928;-88
2022/05/07 15:01:38;;;;;;;;;;;31.50;31.30;;;;;;5071003;28;19972;-88